Time;durP1;ratioP1;P1;durP2;ratioP2;P2;SDS_P1;SDS_P2;PMS_P1;PMS_P2;Temp;Humidity;BMP_temperature;BMP_pressure;BME280_temperature;BME280_humidity;BME280_pressure;Samples;Min_cycle;Max_cycle;Signal;HPM_P1;HPM_P2
2022/05/27 05:00:17;;;;;;;2.30;1.93;;;14.60;97.20;;;;;;1740964;28;20175;-70
2022/05/27 05:01:08;;;;;;;3.13;1.95;;;14.60;97.20;;;;;;1740912;28;20223;-70
2022/05/27 05:01:59;;;;;;;2.13;1.90;;;14.60;97.20;;;;;;1741016;28;20195;-70
2022/05/27 05:02:50;;;;;;;2.67;2.20;;;14.60;97.20;;;;;;1743333;28;20199;-70
2022/05/27 05:03:42;;;;;;;2.13;1.93;;;14.60;97.20;;;;;;1742987;28;20194;-70
2022/05/27 05:04:33;;;;;;;3.30;2.35;;;14.60;97.20;;;;;;1741420;28;20640;-74
2022/05/27 05:05:27;;;;;;;2.03;1.93;;;14.60;97.20;;;;;;1741645;28;20195;-70
2022/05/27 05:06:18;;;;;;;1.83;1.73;;;14.60;97.20;;;;;;1746826;28;20202;-70
2022/05/27 05:07:10;;;;;;;3.87;1.83;;;14.60;97.20;;;;;;1746113;28;20658;-70
2022/05/27 05:08:04;;;;;;;2.50;1.85;;;14.60;97.20;;;;;;1746693;28;20226;-70
2022/05/27 05:08:56;;;;;;;3.00;1.95;;;14.60;97.20;;;;;;1741534;28;20191;-70
2022/05/27 05:09:47;;;;;;;2.08;1.80;;;14.60;97.20;;;;;;1743402;28;20210;-70
2022/05/27 05:10:39;;;;;;;2.00;1.90;;;14.70;97.20;;;;;;1742250;28;20223;-70
2022/05/27 05:11:30;;;;;;;4.57;2.40;;;14.70;97.20;;;;;;1748232;28;20233;-70
2022/05/27 05:12:23;;;;;;;3.58;2.60;;;14.70;97.20;;;;;;1748206;28;20255;-70
2022/05/27 05:13:13;;;;;;;4.20;2.38;;;14.70;97.20;;;;;;1743673;28;20214;-70
2022/05/27 05:14:05;;;;;;;2.13;1.93;;;14.80;97.20;;;;;;1741257;28;20199;-70
2022/05/27 05:14:56;;;;;;;2.30;2.03;;;14.80;97.20;;;;;;1741150;28;20240;-70
2022/05/27 05:15:50;;;;;;;2.70;2.50;;;14.80;97.20;;;;;;1741144;28;20214;-70
2022/05/27 05:16:41;;;;;;;2.03;1.83;;;14.80;97.20;;;;;;1740757;28;20211;-70
2022/05/27 05:17:33;;;;;;;2.20;2.00;;;14.90;97.20;;;;;;1741098;28;20282;-70
2022/05/27 05:18:24;;;;;;;2.15;2.00;;;14.90;97.20;;;;;;1741014;28;20211;-70
2022/05/27 05:19:15;;;;;;;2.10;1.97;;;14.90;97.20;;;;;;1740920;28;20227;-70
2022/05/27 05:20:09;;;;;;;2.92;2.13;;;15.00;97.20;;;;;;1741067;28;20945;-70
2022/05/27 05:21:01;;;;;;;2.75;2.15;;;15.00;97.20;;;;;;1741054;28;20215;-70
2022/05/27 05:21:51;;;;;;;2.10;2.00;;;15.00;97.20;;;;;;1741079;28;20203;-70
2022/05/27 05:22:43;;;;;;;2.40;1.90;;;15.10;97.20;;;;;;1741117;28;20202;-70
2022/05/27 05:23:34;;;;;;;2.67;2.13;;;15.10;97.20;;;;;;1746089;28;20210;-70
2022/05/27 05:24:26;;;;;;;2.05;1.83;;;15.20;97.20;;;;;;1748032;28;20643;-70
2022/05/27 05:25:17;;;;;;;4.57;2.40;;;15.20;97.20;;;;;;1747837;28;20240;-70
2022/05/27 05:26:09;;;;;;;2.90;2.28;;;15.30;97.20;;;;;;1747345;28;20881;-70
2022/05/27 05:27:00;;;;;;;3.17;1.80;;;15.40;97.20;;;;;;1740765;28;20195;-70
2022/05/27 05:27:52;;;;;;;2.33;2.17;;;15.50;97.20;;;;;;1740916;28;20199;-70
2022/05/27 05:28:43;;;;;;;2.65;2.10;;;15.60;97.20;;;;;;1741163;28;20233;-70
2022/05/27 05:29:35;;;;;;;3.63;2.37;;;15.70;97.20;;;;;;1741066;28;20202;-70
2022/05/27 05:30:26;;;;;;;3.25;2.45;;;15.70;97.20;;;;;;1740961;28;20249;-70
2022/05/27 05:31:19;;;;;;;2.10;1.73;;;15.80;97.20;;;;;;1741017;28;20202;-70
2022/05/27 05:32:10;;;;;;;2.53;1.70;;;15.90;97.20;;;;;;1741043;28;20589;-70
2022/05/27 05:33:01;;;;;;;2.30;2.10;;;15.90;97.20;;;;;;1741046;28;20200;-70
2022/05/27 05:33:52;;;;;;;2.38;1.95;;;15.90;97.20;;;;;;1741086;28;20210;-70
2022/05/27 05:34:44;;;;;;;3.53;2.03;;;16.00;97.20;;;;;;1741038;28;20680;-70
2022/05/27 05:35:34;;;;;;;3.17;2.15;;;16.00;97.20;;;;;;1740420;28;20203;-70
2022/05/27 05:36:26;;;;;;;2.33;2.13;;;16.00;97.20;;;;;;1740368;28;20203;-70
2022/05/27 05:37:17;;;;;;;2.53;2.20;;;16.00;97.20;;;;;;1742677;28;20663;-70
2022/05/27 05:38:10;;;;;;;2.78;2.15;;;16.00;97.20;;;;;;1746802;28;20607;-70
2022/05/27 05:39:01;;;;;;;2.85;1.70;;;16.00;97.20;;;;;;1747248;28;20240;-70
2022/05/27 05:39:54;;;;;;;2.40;2.20;;;16.10;97.20;;;;;;1747153;28;20198;-70
2022/05/27 05:40:45;;;;;;;2.63;2.20;;;16.10;97.20;;;;;;1747037;28;20226;-70
2022/05/27 05:41:38;;;;;;;5.87;2.23;;;16.10;97.20;;;;;;1763034;23;20203;-76
2022/05/27 05:42:28;;;;;;;2.75;2.22;;;16.10;97.20;;;;;;1734554;28;20438;-75
2022/05/27 05:43:20;;;;;;;2.77;2.20;;;16.20;97.20;;;;;;1734577;28;20287;-75
2022/05/27 05:44:11;;;;;;;2.45;2.15;;;16.20;97.20;;;;;;1734413;28;20927;-77
2022/05/27 05:45:03;;;;;;;2.70;2.40;;;16.20;97.20;;;;;;1734403;28;20535;-76
2022/05/27 05:45:54;;;;;;;3.58;2.65;;;16.20;97.20;;;;;;1734449;28;20211;-75
2022/05/27 05:46:49;;;;;;;2.70;2.13;;;16.30;97.20;;;;;;1734018;28;20212;-75
2022/05/27 05:47:39;;;;;;;2.30;2.10;;;16.30;97.20;;;;;;1734349;28;20667;-75
2022/05/27 05:48:31;;;;;;;4.07;2.33;;;16.30;97.20;;;;;;1734444;28;20573;-75
2022/05/27 05:49:22;;;;;;;2.13;1.85;;;16.30;97.20;;;;;;1734464;28;20204;-75
2022/05/27 05:50:16;;;;;;;2.65;2.13;;;16.40;97.20;;;;;;1734426;28;20195;-76
2022/05/27 05:51:07;;;;;;;3.63;2.40;;;16.40;97.20;;;;;;1734170;28;20242;-75
2022/05/27 05:52:00;;;;;;;3.13;2.50;;;16.40;97.20;;;;;;1734382;28;20220;-75
2022/05/27 05:52:52;;;;;;;3.28;2.30;;;16.40;97.20;;;;;;1734448;28;20445;-75
2022/05/27 05:53:43;;;;;;;2.40;2.10;;;16.40;97.20;;;;;;1734112;28;20200;-75
2022/05/27 05:54:35;;;;;;;2.97;1.83;;;16.50;97.20;;;;;;1734182;28;20663;-76
2022/05/27 05:55:26;;;;;;;3.53;2.40;;;16.50;97.20;;;;;;1734255;28;20211;-76
2022/05/27 05:56:18;;;;;;;3.47;2.42;;;16.50;97.20;;;;;;1734090;28;20615;-74
2022/05/27 05:57:10;;;;;;;2.25;2.05;;;16.50;97.20;;;;;;1733986;28;20219;-75
2022/05/27 05:58:01;;;;;;;3.08;1.75;;;16.50;97.20;;;;;;1734209;28;20222;-75
2022/05/27 05:58:52;;;;;;;4.00;2.38;;;16.50;97.20;;;;;;1734236;28;20206;-74
2022/05/27 05:59:44;;;;;;;1.97;1.87;;;16.60;97.20;;;;;;1734284;28;20213;-75
2022/05/27 06:00:34;;;;;;;2.83;2.22;;;16.50;97.20;;;;;;1734285;28;20203;-75
2022/05/27 06:01:27;;;;;;;3.37;2.07;;;16.50;97.20;;;;;;1734462;28;20210;-75
2022/05/27 06:02:19;;;;;;;4.10;2.85;;;16.50;97.20;;;;;;1734134;28;20668;-76
2022/05/27 06:03:11;;;;;;;2.38;2.17;;;16.50;97.20;;;;;;1734107;28;20211;-75
2022/05/27 06:04:01;;;;;;;2.85;2.40;;;16.50;97.20;;;;;;1734048;28;20353;-75
2022/05/27 06:04:53;;;;;;;2.60;2.27;;;16.50;97.20;;;;;;1734074;28;20253;-75
2022/05/27 06:05:44;;;;;;;2.78;2.08;;;16.50;97.20;;;;;;1733488;28;20199;-75
2022/05/27 06:06:36;;;;;;;3.63;2.43;;;16.60;97.20;;;;;;1733721;28;20287;-75
2022/05/27 06:07:29;;;;;;;3.05;1.98;;;16.60;97.20;;;;;;1733842;28;20219;-75
2022/05/27 06:08:21;;;;;;;3.25;1.95;;;16.60;97.20;;;;;;1733964;28;20278;-75
2022/05/27 06:09:11;;;;;;;3.85;2.40;;;16.60;97.20;;;;;;1734089;28;20683;-75
2022/05/27 06:10:04;;;;;;;2.70;2.00;;;16.60;97.20;;;;;;1734087;28;20589;-75
2022/05/27 06:10:55;;;;;;;4.85;2.20;;;16.60;97.20;;;;;;1734114;28;20204;-75
2022/05/27 06:11:47;;;;;;;2.17;1.97;;;16.70;97.20;;;;;;1734000;28;20220;-76
2022/05/27 06:12:38;;;;;;;4.97;2.47;;;16.70;97.20;;;;;;1733981;28;20202;-75
2022/05/27 06:13:30;;;;;;;2.38;1.90;;;16.70;97.20;;;;;;1734078;28;20204;-75
2022/05/27 06:14:21;;;;;;;5.88;2.70;;;16.80;97.20;;;;;;1733496;28;20257;-75
2022/05/27 06:15:28;;;;;;;6.53;2.15;;;16.80;97.20;;;;;;1730258;28;20249;-75
2022/05/27 06:16:19;;;;;;;2.72;2.20;;;16.90;97.20;;;;;;1730589;28;20319;-75
2022/05/27 06:17:11;;;;;;;2.70;2.20;;;16.90;97.20;;;;;;1730547;28;20204;-75
2022/05/27 06:18:04;;;;;;;3.25;2.35;;;16.90;97.20;;;;;;1733840;28;20210;-75
2022/05/27 06:18:55;;;;;;;7.65;2.25;;;17.00;97.20;;;;;;1733837;28;20199;-75
2022/05/27 06:19:46;;;;;;;4.25;2.60;;;17.00;97.20;;;;;;1733371;28;20204;-75
2022/05/27 06:20:40;;;;;;;3.30;2.00;;;17.00;97.20;;;;;;1734029;28;20402;-75
2022/05/27 06:21:31;;;;;;;2.75;2.00;;;17.00;97.20;;;;;;1733846;28;20447;-75
2022/05/27 06:22:23;;;;;;;2.23;2.03;;;17.00;97.20;;;;;;1733981;28;20283;-75
2022/05/27 06:23:14;;;;;;;1.92;1.77;;;17.10;97.20;;;;;;1733991;28;20212;-75
2022/05/27 06:24:07;;;;;;;5.57;2.30;;;17.10;97.20;;;;;;1734045;28;20545;-75
2022/05/27 06:24:58;;;;;;;3.38;2.47;;;17.10;97.20;;;;;;1733958;28;20200;-75
2022/05/27 06:25:54;;;;;;;3.97;2.30;;;17.10;97.20;;;;;;1734011;28;20197;-75
2022/05/27 06:26:45;;;;;;;2.38;2.17;;;17.10;97.20;;;;;;1733740;28;20208;-75
2022/05/27 06:27:37;;;;;;;2.37;2.20;;;17.20;97.20;;;;;;1734008;28;20199;-75
2022/05/27 06:34:25;;;;;;;3.30;2.40;;;17.60;97.20;;;;;;1727300;28;20212;-75
2022/05/27 06:35:16;;;;;;;5.10;2.30;;;17.60;97.20;;;;;;1727252;28;20671;-75
2022/05/27 06:36:08;;;;;;;4.60;2.70;;;17.60;97.20;;;;;;1727114;28;20574;-75
2022/05/27 06:37:01;;;;;;;2.30;2.10;;;17.60;97.20;;;;;;1726901;28;20470;-75
2022/05/27 06:37:53;;;;;;;2.25;2.05;;;17.70;97.20;;;;;;1727166;28;20197;-75
2022/05/27 06:38:44;;;;;;;2.30;2.10;;;17.70;97.20;;;;;;1727267;28;20204;-75
2022/05/27 06:39:38;;;;;;;2.73;2.47;;;17.70;97.20;;;;;;1727188;28;20230;-75
2022/05/27 06:40:28;;;;;;;2.10;1.90;;;17.80;97.20;;;;;;1727145;28;20213;-75
2022/05/27 06:41:20;;;;;;;3.60;2.20;;;17.80;97.20;;;;;;1726931;28;20296;-75
2022/05/27 06:42:14;;;;;;;3.08;2.65;;;17.90;97.20;;;;;;1727217;28;20209;-76
2022/05/27 06:43:06;;;;;;;3.15;2.00;;;17.90;97.20;;;;;;1727103;28;20220;-75
2022/05/27 06:43:57;;;;;;;2.63;2.20;;;17.90;97.20;;;;;;1727244;28;20209;-75
2022/05/27 06:44:49;;;;;;;2.63;2.23;;;17.90;97.20;;;;;;1732968;28;20192;-75
2022/05/27 06:45:39;;;;;;;2.22;2.03;;;18.00;97.20;;;;;;1733815;28;20459;-75
2022/05/27 06:46:32;;;;;;;3.17;2.37;;;18.00;97.20;;;;;;1733923;28;20206;-75
2022/05/27 06:47:23;;;;;;;2.60;2.40;;;18.00;97.20;;;;;;1733969;28;20207;-75
2022/05/27 06:48:16;;;;;;;3.00;2.40;;;18.00;97.20;;;;;;1733841;28;20208;-75
2022/05/27 06:49:07;;;;;;;3.47;1.95;;;18.00;97.20;;;;;;1734537;28;20839;-75
2022/05/27 06:49:59;;;;;;;2.93;2.10;;;18.00;97.20;;;;;;1735262;28;20705;-74
2022/05/27 06:50:50;;;;;;;2.70;2.25;;;18.00;97.20;;;;;;1735218;28;20449;-74
2022/05/27 06:51:42;;;;;;;2.60;2.40;;;18.00;97.20;;;;;;1735159;28;20212;-75
2022/05/27 06:52:33;;;;;;;3.08;2.10;;;18.00;97.20;;;;;;1735223;28;20227;-75
2022/05/27 06:53:24;;;;;;;2.75;2.20;;;18.00;97.20;;;;;;1735240;28;20656;-76
2022/05/27 06:54:16;;;;;;;2.67;1.90;;;18.00;97.20;;;;;;1735224;28;20215;-76
2022/05/27 06:55:08;;;;;;;2.70;2.17;;;18.00;97.20;;;;;;1735262;28;20195;-75
2022/05/27 06:55:59;;;;;;;2.90;2.35;;;17.90;97.20;;;;;;1735118;28;20235;-75
2022/05/27 06:56:52;;;;;;;2.80;2.37;;;17.90;97.20;;;;;;1734793;28;20207;-75
2022/05/27 06:57:43;;;;;;;2.65;2.30;;;17.90;97.20;;;;;;1734533;28;20234;-75
2022/05/27 06:58:35;;;;;;;2.40;2.00;;;17.90;97.20;;;;;;1734407;28;20203;-75
2022/05/27 06:59:26;;;;;;;2.78;2.40;;;17.90;97.20;;;;;;1734914;28;20207;-75
2022/05/27 07:00:18;;;;;;;2.30;2.10;;;17.90;97.20;;;;;;1734806;28;20227;-74
2022/05/27 07:01:09;;;;;;;3.47;2.28;;;17.90;97.20;;;;;;1734553;28;21183;-75
2022/05/27 07:02:02;;;;;;;2.40;2.20;;;17.80;97.20;;;;;;1734151;28;20270;-75
2022/05/27 07:02:52;;;;;;;2.75;2.17;;;17.80;97.20;;;;;;1735501;28;20195;-76
2022/05/27 07:03:45;;;;;;;3.60;2.57;;;17.70;97.20;;;;;;1735221;28;20202;-75
2022/05/27 07:04:36;;;;;;;2.70;2.33;;;17.70;97.20;;;;;;1735199;28;20577;-75
2022/05/27 07:05:28;;;;;;;3.30;2.60;;;17.60;97.20;;;;;;1735217;28;20199;-74
2022/05/27 07:06:19;;;;;;;2.65;2.45;;;17.60;97.20;;;;;;1735070;28;20484;-74
2022/05/27 07:07:11;;;;;;;2.50;1.90;;;17.60;97.20;;;;;;1734850;28;20199;-76
2022/05/27 07:08:04;;;;;;;2.33;2.13;;;17.50;97.20;;;;;;1734889;28;20239;-76
2022/05/27 07:08:55;;;;;;;2.92;2.38;;;17.50;97.20;;;;;;1735068;28;20231;-75
2022/05/27 07:09:46;;;;;;;2.70;2.30;;;17.50;97.20;;;;;;1735083;28;20652;-75
2022/05/27 07:10:38;;;;;;;3.70;2.40;;;17.50;97.20;;;;;;1735088;28;20203;-75
2022/05/27 07:11:29;;;;;;;2.78;2.25;;;17.50;97.20;;;;;;1735060;28;20242;-75
2022/05/27 07:12:21;;;;;;;3.38;2.38;;;17.50;97.20;;;;;;1735103;28;20228;-75
2022/05/27 07:13:12;;;;;;;2.88;2.30;;;17.40;97.20;;;;;;1734808;28;20196;-76
2022/05/27 07:14:04;;;;;;;5.35;2.20;;;17.40;97.20;;;;;;1735129;28;20203;-76
2022/05/27 07:14:55;;;;;;;3.97;2.10;;;17.40;97.20;;;;;;1735140;28;20223;-75
2022/05/27 07:15:47;;;;;;;2.73;2.53;;;17.40;97.20;;;;;;1735076;28;20283;-76
2022/05/27 07:16:38;;;;;;;3.03;2.10;;;17.30;97.20;;;;;;1734778;28;20200;-75
2022/05/27 07:17:30;;;;;;;3.78;2.15;;;17.30;97.20;;;;;;1735123;28;20204;-75
2022/05/27 07:18:21;;;;;;;3.17;2.20;;;17.30;97.20;;;;;;1734933;28;20208;-74
2022/05/27 07:19:14;;;;;;;5.53;2.35;;;17.30;97.20;;;;;;1735062;28;20247;-74
2022/05/27 07:20:06;;;;;;;4.90;2.60;;;17.30;97.20;;;;;;1734901;28;20223;-76
2022/05/27 07:21:02;;;;;;;5.60;2.10;;;17.30;97.20;;;;;;1735008;28;20200;-75
2022/05/27 07:21:55;;;;;;;4.70;2.40;;;17.20;97.20;;;;;;1735036;28;20215;-76
2022/05/27 07:22:47;;;;;;;3.20;2.33;;;17.20;97.20;;;;;;1735026;28;20200;-76
2022/05/27 07:23:38;;;;;;;4.38;2.65;;;17.20;97.20;;;;;;1734953;28;20247;-75
2022/05/27 07:24:30;;;;;;;3.93;2.40;;;17.10;97.20;;;;;;1735030;28;20196;-75
2022/05/27 07:25:22;;;;;;;4.32;2.45;;;17.10;97.20;;;;;;1735035;28;20212;-76
2022/05/27 07:26:13;;;;;;;3.67;2.53;;;17.10;97.20;;;;;;1735000;28;20659;-75
2022/05/27 07:27:05;;;;;;;3.38;2.42;;;17.10;97.20;;;;;;1734395;28;20203;-76
2022/05/27 07:27:56;;;;;;;2.60;2.40;;;17.10;97.20;;;;;;1734696;28;20246;-75
2022/05/27 07:28:47;;;;;;;3.28;2.42;;;17.10;97.20;;;;;;1734962;28;20679;-75
2022/05/27 07:29:39;;;;;;;2.93;2.57;;;17.00;97.20;;;;;;1735049;28;20601;-75
2022/05/27 07:30:30;;;;;;;3.40;2.30;;;17.00;97.20;;;;;;1735041;28;20450;-75
2022/05/27 07:31:22;;;;;;;5.00;2.63;;;17.00;97.20;;;;;;1734845;28;20222;-76
2022/05/27 07:32:14;;;;;;;5.57;2.75;;;17.00;97.20;;;;;;1734919;28;20474;-75
2022/05/27 07:33:05;;;;;;;5.40;2.75;;;17.00;97.20;;;;;;1734941;28;20648;-75
2022/05/27 07:33:57;;;;;;;3.38;2.30;;;17.00;97.20;;;;;;1734946;28;20191;-76
2022/05/27 07:34:50;;;;;;;2.33;2.15;;;17.00;97.20;;;;;;1734954;28;20265;-75
2022/05/27 07:35:41;;;;;;;3.17;2.88;;;17.10;97.20;;;;;;1735124;28;20239;-76
2022/05/27 07:36:33;;;;;;;2.20;2.00;;;17.10;97.20;;;;;;1734431;28;20640;-74
2022/05/27 07:37:24;;;;;;;2.92;2.72;;;17.10;97.20;;;;;;1734865;28;20226;-74
2022/05/27 07:38:17;;;;;;;4.90;2.40;;;17.10;97.20;;;;;;1734945;28;20199;-75
2022/05/27 07:39:08;;;;;;;5.05;2.55;;;17.10;97.20;;;;;;1734962;28;20337;-74
2022/05/27 07:40:00;;;;;;;2.33;2.13;;;17.10;97.20;;;;;;1734830;28;20259;-75
2022/05/27 07:40:51;;;;;;;2.60;1.92;;;17.10;97.20;;;;;;1734920;28;20200;-75
2022/05/27 07:41:42;;;;;;;3.03;1.90;;;17.10;97.20;;;;;;1734470;28;20223;-75
2022/05/27 07:42:33;;;;;;;2.63;2.42;;;17.20;97.20;;;;;;1734991;28;20210;-76
2022/05/27 07:43:25;;;;;;;2.40;2.20;;;17.20;97.20;;;;;;1734961;28;20659;-76
2022/05/27 07:44:16;;;;;;;3.25;2.42;;;17.20;97.20;;;;;;1735182;28;20255;-77
2022/05/27 07:45:10;;;;;;;3.33;2.15;;;17.20;97.20;;;;;;1735234;28;20195;-77
2022/05/27 07:46:01;;;;;;;2.30;2.10;;;17.20;97.20;;;;;;1735003;28;20235;-77
2022/05/27 07:46:54;;;;;;;3.47;2.90;;;17.30;97.20;;;;;;1734785;28;20207;-76
2022/05/27 07:47:44;;;;;;;2.70;2.50;;;17.30;97.20;;;;;;1735035;28;20671;-75
2022/05/27 07:48:36;;;;;;;3.07;1.93;;;17.30;97.20;;;;;;1735081;28;20645;-74
2022/05/27 07:49:27;;;;;;;4.00;2.55;;;17.30;97.20;;;;;;1735041;28;20696;-75
2022/05/27 07:50:21;;;;;;;2.70;2.50;;;17.40;97.20;;;;;;1734957;28;20655;-75
2022/05/27 07:51:13;;;;;;;3.58;2.30;;;17.40;97.20;;;;;;1735016;28;20748;-75
2022/05/27 07:52:06;;;;;;;3.55;2.38;;;17.50;97.20;;;;;;1734921;28;20298;-74
2022/05/27 07:52:57;;;;;;;3.60;2.65;;;17.50;97.20;;;;;;1734826;28;20200;-74
2022/05/27 07:53:49;;;;;;;3.23;2.10;;;17.60;97.20;;;;;;1734986;28;20196;-74
2022/05/27 07:54:39;;;;;;;2.13;2.03;;;17.60;97.20;;;;;;1734828;28;20517;-75
2022/05/27 07:55:31;;;;;;;2.50;2.30;;;17.70;97.20;;;;;;1734926;28;20203;-74
2022/05/27 07:56:22;;;;;;;2.92;2.58;;;17.80;97.20;;;;;;1734496;28;20573;-75
2022/05/27 07:57:24;;;;;;;3.57;2.50;;;17.90;97.20;;;;;;1734657;28;20652;-76
2022/05/27 07:58:15;;;;;;;2.67;2.47;;;17.90;97.20;;;;;;1734780;28;20245;-75
2022/05/27 07:59:07;;;;;;;2.83;2.50;;;18.00;97.20;;;;;;1734899;28;20199;-75
2022/05/27 07:59:59;;;;;;;3.25;2.85;;;18.00;97.20;;;;;;1734690;28;20647;-75
2022/05/27 08:00:51;;;;;;;2.88;2.55;;;18.10;97.20;;;;;;1734417;28;20258;-75
2022/05/27 08:01:42;;;;;;;4.70;3.22;;;18.10;97.20;;;;;;1734969;28;20714;-75
2022/05/27 08:02:33;;;;;;;3.17;2.77;;;18.10;97.20;;;;;;1734909;28;20615;-76
2022/05/27 08:03:24;;;;;;;2.80;2.55;;;18.10;97.20;;;;;;1734805;28;20204;-75
2022/05/27 08:04:16;;;;;;;4.30;3.10;;;18.10;97.20;;;;;;1734828;28;20675;-75
2022/05/27 08:05:08;;;;;;;5.53;2.45;;;18.10;97.20;;;;;;1734777;28;20199;-75
2022/05/27 08:06:01;;;;;;;3.03;2.30;;;18.10;97.20;;;;;;1734761;28;20674;-75
2022/05/27 08:06:52;;;;;;;2.92;2.30;;;18.10;97.20;;;;;;1734506;28;20287;-75
2022/05/27 08:07:45;;;;;;;3.17;2.87;;;18.10;97.20;;;;;;1734728;28;20507;-75
2022/05/27 08:08:36;;;;;;;4.57;2.80;;;18.10;97.20;;;;;;1734821;28;20204;-75
2022/05/27 08:09:28;;;;;;;4.28;3.10;;;18.10;97.20;;;;;;1734859;28;20613;-75
2022/05/27 08:10:21;;;;;;;3.83;2.30;;;18.10;97.20;;;;;;1734578;28;20698;-75
2022/05/27 08:11:13;;;;;;;5.70;3.40;;;18.10;97.20;;;;;;1734964;28;20223;-75
2022/05/27 08:12:05;;;;;;;4.07;2.17;;;18.20;97.20;;;;;;1734929;28;20215;-76
2022/05/27 08:12:56;;;;;;;4.97;2.80;;;18.20;97.20;;;;;;1735146;28;20387;-76
2022/05/27 08:13:47;;;;;;;4.78;2.60;;;18.20;97.20;;;;;;1734996;28;20287;-75
2022/05/27 08:14:39;;;;;;;7.20;3.90;;;18.30;97.20;;;;;;1734841;28;20295;-77
2022/05/27 08:15:30;;;;;;;4.75;2.55;;;18.30;97.20;;;;;;1734779;28;20714;-75
2022/05/27 08:16:22;;;;;;;4.57;2.87;;;18.40;97.20;;;;;;1734759;28;20571;-75
2022/05/27 08:17:13;;;;;;;3.53;2.58;;;18.40;97.20;;;;;;1734810;28;20804;-75
2022/05/27 08:18:06;;;;;;;5.07;3.03;;;18.50;97.20;;;;;;1734920;28;20214;-75
2022/05/27 08:18:57;;;;;;;3.28;2.75;;;18.70;97.20;;;;;;1735142;28;20239;-74
2022/05/27 08:19:49;;;;;;;3.40;2.43;;;18.80;97.20;;;;;;1735075;28;20659;-75
2022/05/27 08:20:40;;;;;;;2.38;2.25;;;18.90;97.20;;;;;;1734857;28;20207;-74
2022/05/27 08:21:36;;;;;;;3.03;2.30;;;19.10;97.20;;;;;;1735045;28;20287;-74
2022/05/27 08:22:27;;;;;;;3.10;2.20;;;19.20;97.20;;;;;;1734949;28;20818;-75
2022/05/27 08:23:19;;;;;;;2.80;2.17;;;19.40;97.20;;;;;;1734858;28;20631;-74
2022/05/27 08:24:09;;;;;;;3.15;2.50;;;19.50;97.20;;;;;;1734929;28;20455;-74
2022/05/27 08:25:01;;;;;;;3.33;2.73;;;19.60;97.20;;;;;;1734782;28;20213;-75
2022/05/27 08:25:55;;;;;;;4.03;2.88;;;19.60;97.20;;;;;;1734961;28;20250;-76
2022/05/27 08:26:47;;;;;;;3.17;2.72;;;19.60;97.20;;;;;;1734437;28;20196;-74
2022/05/27 08:27:40;;;;;;;2.55;1.90;;;19.60;97.20;;;;;;1734744;28;20249;-76
2022/05/27 08:28:31;;;;;;;2.88;1.95;;;19.70;97.20;;;;;;1734873;28;20700;-74
2022/05/27 08:29:22;;;;;;;2.70;2.50;;;19.70;97.20;;;;;;1734855;28;20600;-75
2022/05/27 08:30:16;;;;;;;4.22;2.38;;;19.80;97.20;;;;;;1734723;28;20447;-75
2022/05/27 08:31:08;;;;;;;3.20;2.65;;;19.80;97.20;;;;;;1734649;28;20223;-75
2022/05/27 08:32:03;;;;;;;2.75;2.22;;;19.80;97.20;;;;;;1734619;28;20266;-75
2022/05/27 08:32:55;;;;;;;3.20;2.63;;;19.80;97.20;;;;;;1734673;28;20220;-75
2022/05/27 08:38:30;;;;;;;2.42;2.22;;;19.60;97.20;;;;;;1733923;28;20235;-75
2022/05/27 08:39:21;;;;;;;3.63;2.28;;;19.60;97.20;;;;;;1734105;28;20663;-75
2022/05/27 08:40:24;;;;;;;2.80;2.33;;;19.60;97.20;;;;;;1734127;28;20721;-75
2022/05/27 08:41:28;;;;;;;2.40;2.20;;;19.60;97.20;;;;;;1733963;28;20234;-76
2022/05/27 08:42:32;;;;;;;5.07;2.45;;;19.60;97.20;;;;;;1734781;28;20204;-75
2022/05/27 08:43:32;;;;;;;3.17;2.03;;;19.60;97.20;;;;;;1734164;28;20623;-75
2022/05/27 08:44:37;;;;;;;3.33;2.22;;;19.60;97.20;;;;;;1734397;28;20705;-76
2022/05/27 08:45:33;;;;;;;4.00;2.20;;;19.60;97.20;;;;;;1734419;28;20200;-75
2022/05/27 08:46:34;;;;;;;2.58;2.38;;;19.70;97.20;;;;;;1734563;28;20208;-74
2022/05/27 08:47:31;;;;;;;2.30;2.10;;;19.80;97.20;;;;;;1734431;28;20211;-76
2022/05/27 08:48:24;;;;;;;4.05;2.30;;;19.80;97.20;;;;;;1734378;28;20207;-75
2022/05/27 08:49:21;;;;;;;3.60;2.35;;;19.90;97.20;;;;;;1734586;28;20196;-76
2022/05/27 08:50:21;;;;;;;3.00;2.25;;;19.90;97.20;;;;;;1734694;28;20208;-75
2022/05/27 08:51:18;;;;;;;3.10;2.20;;;19.90;97.20;;;;;;1734624;28;20279;-75
2022/05/27 08:52:18;;;;;;;3.58;2.22;;;20.00;97.20;;;;;;1734590;28;20577;-76
2022/05/27 08:53:20;;;;;;;4.57;2.22;;;19.90;97.20;;;;;;1734535;28;20582;-75
2022/05/27 08:54:14;;;;;;;2.20;2.00;;;20.00;97.20;;;;;;1734524;28;20232;-75
2022/05/27 08:59:26;;;;;;;2.53;2.33;;;19.90;97.20;;;;;;1734439;28;20560;-75
2022/05/27 09:00:04;;;;;;;2.45;2.28;;;19.60;97.20;;;;;;1726731;28;20737;-75
2022/05/27 09:00:56;;;;;;;4.05;2.25;;;19.40;97.20;;;;;;1727677;28;20189;-75
2022/05/27 09:01:51;;;;;;;3.63;2.10;;;19.40;97.20;;;;;;1727598;28;20229;-75
2022/05/27 09:02:49;;;;;;;5.00;2.10;;;19.40;97.20;;;;;;1727618;28;20204;-75
2022/05/27 09:03:44;;;;;;;2.60;2.40;;;19.40;97.20;;;;;;1727515;28;20208;-75
2022/05/27 09:04:40;;;;;;;2.60;2.05;;;19.40;97.20;;;;;;1727602;28;20582;-74
2022/05/27 09:05:36;;;;;;;3.50;2.40;;;19.50;97.20;;;;;;1727639;28;20205;-75
2022/05/27 09:06:34;;;;;;;3.75;2.70;;;19.50;97.20;;;;;;1727675;28;20624;-75
2022/05/27 09:07:33;;;;;;;2.20;2.00;;;19.60;97.20;;;;;;1727747;28;20684;-74
2022/05/27 09:08:27;;;;;;;2.40;2.20;;;19.60;97.20;;;;;;1727547;28;20254;-75
2022/05/27 09:09:20;;;;;;;2.60;1.90;;;19.60;97.20;;;;;;1727561;28;20227;-75
2022/05/27 09:10:16;;;;;;;3.08;1.83;;;19.70;97.20;;;;;;1727592;28;20211;-75
2022/05/27 09:11:22;;;;;;;2.35;1.80;;;19.70;97.20;;;;;;1727692;28;20240;-75
2022/05/27 09:12:31;;;;;;;3.65;2.35;;;19.80;97.20;;;;;;1727254;28;20295;-74
2022/05/27 09:13:30;;;;;;;3.08;2.10;;;19.90;97.20;;;;;;1727438;28;20211;-76
2022/05/27 09:14:24;;;;;;;3.13;2.30;;;20.00;97.20;;;;;;1727596;28;20208;-75
2022/05/27 09:15:28;;;;;;;3.97;2.53;;;20.10;97.20;;;;;;1728409;28;20259;-75
2022/05/27 09:16:31;;;;;;;2.03;1.80;;;20.20;97.20;;;;;;1727472;28;20668;-74
2022/05/27 09:17:31;;;;;;;3.10;2.08;;;20.30;97.20;;;;;;1727377;28;20215;-74
2022/05/27 09:18:35;;;;;;;2.28;2.08;;;20.40;97.20;;;;;;1727470;28;20254;-74
2022/05/27 09:19:35;;;;;;;3.22;2.20;;;20.50;97.20;;;;;;1727652;28;20251;-75
2022/05/27 09:20:37;;;;;;;2.97;2.30;;;20.50;97.20;;;;;;1727590;28;22519;-75
2022/05/27 09:21:36;;;;;;;2.25;1.98;;;20.60;97.20;;;;;;1727550;28;20672;-75
2022/05/27 09:22:38;;;;;;;2.28;2.08;;;20.70;97.20;;;;;;1727558;28;20240;-74
2022/05/27 09:23:56;;;;;;;2.38;2.17;;;20.80;97.20;;;;;;1727574;28;20216;-74
2022/05/27 09:24:54;;;;;;;3.05;2.08;;;21.00;97.20;;;;;;1722888;28;20201;-75
2022/05/27 09:25:55;;;;;;;2.95;2.03;;;21.10;97.20;;;;;;1727472;28;20201;-74
2022/05/27 09:26:54;;;;;;;2.55;2.08;;;21.20;97.20;;;;;;1727341;28;20201;-74
2022/05/27 09:27:57;;;;;;;2.92;2.30;;;21.30;97.20;;;;;;1727532;28;20283;-75
2022/05/27 09:28:57;;;;;;;2.50;2.30;;;21.40;97.20;;;;;;1727490;28;20211;-74
2022/05/27 09:29:56;;;;;;;3.03;1.85;;;21.50;97.20;;;;;;1727523;28;20200;-74
2022/05/27 09:30:50;;;;;;;2.55;2.35;;;21.50;97.20;;;;;;1727510;28;20196;-75
2022/05/27 09:31:45;;;;;;;2.05;1.85;;;21.50;97.20;;;;;;1727422;28;20224;-74
2022/05/27 09:32:45;;;;;;;2.58;2.15;;;21.50;97.20;;;;;;1733817;28;20192;-75
2022/05/27 09:33:37;;;;;;;2.33;2.13;;;21.50;97.20;;;;;;1734203;28;20663;-75
2022/05/27 09:34:32;;;;;;;3.05;1.83;;;21.50;97.20;;;;;;1734263;28;20731;-74
2022/05/27 09:35:31;;;;;;;2.20;2.00;;;21.50;97.20;;;;;;1734287;28;20210;-75
2022/05/27 09:36:28;;;;;;;1.80;1.70;;;21.40;97.20;;;;;;1734198;28;20199;-74
2022/05/27 09:37:24;;;;;;;3.70;2.42;;;21.40;97.20;;;;;;1733854;28;20208;-74
2022/05/27 09:38:22;;;;;;;2.67;2.40;;;21.40;97.20;;;;;;1734218;28;20663;-75
2022/05/27 09:39:15;;;;;;;1.98;1.75;;;21.40;97.20;;;;;;1734401;28;20211;-75
2022/05/27 09:40:14;;;;;;;2.20;1.98;;;21.40;97.20;;;;;;1734356;28;20291;-74
2022/05/27 09:41:11;;;;;;;3.67;1.80;;;21.50;97.20;;;;;;1734130;28;20220;-74
2022/05/27 09:42:13;;;;;;;2.63;2.20;;;21.50;97.20;;;;;;1733803;28;20220;-74
2022/05/27 09:43:12;;;;;;;2.70;2.13;;;21.60;97.20;;;;;;1731150;28;20284;-73
2022/05/27 09:44:15;;;;;;;2.05;1.75;;;21.60;97.20;;;;;;1731835;28;20246;-73
2022/05/27 09:45:06;;;;;;;3.83;1.98;;;21.80;97.20;;;;;;1732298;28;20204;-74
2022/05/27 09:46:01;;;;;;;2.17;1.98;;;21.90;97.20;;;;;;1734139;28;20219;-77
2022/05/27 09:46:52;;;;;;;3.28;1.40;;;22.00;97.20;;;;;;1734183;28;20199;-74
2022/05/27 09:47:44;;;;;;;2.23;1.80;;;22.10;97.20;;;;;;1734280;28;20206;-74
2022/05/27 09:48:35;;;;;;;4.70;2.13;;;22.20;97.20;;;;;;1733807;28;20478;-75
2022/05/27 09:49:27;;;;;;;4.60;1.90;;;22.40;97.20;;;;;;1734176;28;20198;-74
2022/05/27 09:50:25;;;;;;;2.17;1.98;;;22.50;97.20;;;;;;1734137;28;20231;-75
2022/05/27 09:51:19;;;;;;;2.88;1.80;;;22.60;97.20;;;;;;1734047;28;20208;-74
2022/05/27 09:52:10;;;;;;;1.98;1.50;;;22.70;97.20;;;;;;1734089;28;20250;-74